< Typhoon 197813 1978 Season Typhoon 197815 >
Typhoon 197814 (ELAINE)
General InformationTrack Information on Google MapsDetailed Wind Information || Disaster Info.ResourceGoogle EarthGE AnimationAtom FeedGeoJSON
Detalied Best Track (Time Zone = UTC)
Year Month Day Hour Lat. Long. Pressure (hPa) Wind (kt) Class Image Chart
1978 8 21 00 15.0 128.0 1004 0 2 -- Chart
1978 8 21 06 15.5 127.8 1004 0 2 -- Chart
1978 8 21 12 16.0 127.5 1004 0 2 -- Chart
1978 8 21 18 16.5 127.3 1004 0 2 -- Chart
1978 8 22 00 17.0 127.0 1000 0 2 -- Chart
1978 8 22 06 17.8 127.0 1000 0 2 -- Chart
1978 8 22 12 18.0 126.0 1000 0 2 -- Chart
1978 8 22 18 18.0 125.0 996 0 2 -- Chart
1978 8 23 00 18.2 124.2 992 40 3 -- Chart
1978 8 23 06 18.0 123.0 992 40 3 -- Chart
1978 8 23 12 18.0 122.1 992 40 3 -- Chart
1978 8 23 18 17.8 121.1 992 40 3 -- Chart
1978 8 24 00 17.2 120.5 992 40 3 -- Chart
1978 8 24 06 16.8 119.9 992 40 3 -- Chart
1978 8 24 12 16.6 119.5 990 40 3 -- Chart
1978 8 24 18 16.5 118.9 990 40 3 -- Chart
1978 8 25 00 16.5 118.4 985 40 3 -- Chart
1978 8 25 06 17.4 117.9 980 45 3 -- Chart
1978 8 25 12 17.1 117.9 980 50 4 -- Chart
1978 8 25 18 17.3 118.0 975 55 4 -- Chart
1978 8 26 00 18.4 116.8 975 55 4 -- Chart
1978 8 26 06 18.8 116.3 970 55 4 -- Chart
1978 8 26 12 19.4 115.3 970 60 4 -- Chart
1978 8 26 18 19.6 114.0 965 60 4 -- Chart
1978 8 27 00 20.0 112.8 965 60 4 -- Chart
1978 8 27 06 20.8 111.7 965 65 5 -- Chart
1978 8 27 12 21.7 110.2 970 60 4 -- Chart
1978 8 27 18 22.0 108.5 975 50 4 -- Chart
1978 8 28 00 22.0 107.0 992 0 2 -- Chart
1978 8 28 06 21.0 105.5 996 0 2 -- Chart
1978 8 28 12 21.0 104.0 998 0 2 -- Chart
1978 8 28 18 21.0 102.5 1000 0 2 -- Chart
1978 8 29 00 20.7 100.9 1002 0 2 -- Chart
Japan Meteorological Agency Best Track Data | Correction Date : 1992-10-21
< Typhoon 197813 1978 Season Typhoon 197815 >

Help